Time;durP1;ratioP1;P1;durP2;ratioP2;P2;SDS_P1;SDS_P2;PMS_P1;PMS_P2;Temp;Humidity;BMP_temperature;BMP_pressure;BME280_temperature;BME280_humidity;BME280_pressure;Samples;Min_cycle;Max_cycle;Signal;HPM_P1;HPM_P2
2021/03/05 00:01:14;;;;;;;13.30;3.55;;;1.70;91.60;;;;;;5038458;28;20178;-92
2021/03/05 00:03:40;;;;;;;14.07;2.92;;;1.70;91.60;;;;;;5051028;28;20131;-91
2021/03/05 00:06:06;;;;;;;13.27;2.45;;;1.60;91.60;;;;;;5063818;28;20063;-94
2021/03/05 00:08:32;;;;;;;12.65;2.10;;;1.60;92.00;;;;;;5066578;28;20071;-93
2021/03/05 00:10:58;;;;;;;9.05;2.13;;;1.60;91.70;;;;;;5039105;28;20129;-92
2021/03/05 00:13:24;;;;;;;11.27;2.25;;;1.60;91.70;;;;;;5065205;28;20087;-92
2021/03/05 00:15:55;;;;;;;12.90;2.55;;;1.60;91.70;;;;;;5068694;28;20127;-92
2021/03/05 00:18:21;;;;;;;10.70;2.28;;;1.50;91.70;;;;;;5043666;28;20129;-92
2021/03/05 00:20:50;;;;;;;14.65;2.53;;;1.50;91.70;;;;;;5049366;28;20162;-91
2021/03/05 00:23:16;;;;;;;12.50;2.75;;;1.50;91.80;;;;;;5081449;27;20055;-89
2021/03/05 00:25:43;;;;;;;11.00;2.53;;;1.40;91.80;;;;;;5060082;27;20550;-94
2021/03/05 00:28:09;;;;;;;11.00;2.60;;;1.50;91.70;;;;;;5046022;28;20531;-92
2021/03/05 00:30:36;;;;;;;9.70;2.67;;;1.50;91.70;;;;;;5054948;28;20052;-92
2021/03/05 00:33:05;;;;;;;14.50;2.78;;;1.50;91.70;;;;;;5055180;28;20076;-92
2021/03/05 00:35:33;;;;;;;13.55;2.40;;;1.50;91.70;;;;;;5045638;28;20044;-93
2021/03/05 00:37:59;;;;;;;14.40;2.67;;;1.50;91.70;;;;;;5029867;28;20043;-92
2021/03/05 00:40:25;;;;;;;12.57;2.65;;;1.50;91.70;;;;;;5056496;28;20052;-93
2021/03/05 00:42:52;;;;;;;14.02;2.70;;;1.40;91.80;;;;;;5059464;28;20044;-92
2021/03/05 00:45:22;;;;;;;13.18;3.13;;;1.30;91.80;;;;;;5005433;28;20144;-92
2021/03/05 00:47:52;;;;;;;11.23;2.60;;;1.40;91.80;;;;;;5065204;28;20102;-93
2021/03/05 00:50:19;;;;;;;21.20;3.03;;;1.40;91.80;;;;;;5054379;28;20071;-93
2021/03/05 00:52:47;;;;;;;10.25;2.65;;;1.30;91.90;;;;;;5052475;28;20051;-93
2021/03/05 00:55:15;;;;;;;8.30;2.60;;;1.30;91.90;;;;;;5062015;28;20043;-93
2021/03/05 00:57:41;;;;;;;8.70;2.47;;;1.30;91.90;;;;;;5072493;28;20048;-93
2021/03/05 01:00:13;;;;;;;10.98;2.45;;;1.20;91.90;;;;;;5045792;28;20057;-93
2021/03/05 01:02:42;;;;;;;13.75;2.53;;;1.10;91.90;;;;;;5059279;28;20168;-92
2021/03/05 01:05:09;;;;;;;11.98;2.63;;;1.00;92.00;;;;;;5085696;28;20051;-94
2021/03/05 01:07:39;;;;;;;9.73;2.53;;;1.00;92.00;;;;;;5055835;28;20052;-92
2021/03/05 01:10:06;;;;;;;9.73;2.60;;;0.90;92.10;;;;;;5034934;28;20060;-93
2021/03/05 01:12:33;;;;;;;14.15;2.70;;;0.90;92.20;;;;;;5055822;28;20504;-92
2021/03/05 01:15:02;;;;;;;11.77;2.60;;;0.90;92.30;;;;;;5048857;28;20067;-92
2021/03/05 01:17:30;;;;;;;9.63;2.45;;;0.90;92.30;;;;;;5088455;27;20082;-94
2021/03/05 01:19:56;;;;;;;13.77;3.35;;;0.90;92.20;;;;;;5061953;28;20139;-93
2021/03/05 01:22:22;;;;;;;10.95;2.88;;;0.80;92.20;;;;;;5028704;28;20048;-94
2021/03/05 01:24:50;;;;;;;15.35;3.88;;;0.80;92.30;;;;;;5049856;28;20483;-92
2021/03/05 01:27:16;;;;;;;17.65;3.00;;;0.70;92.30;;;;;;5067052;28;20060;-91
2021/03/05 01:29:42;;;;;;;13.82;2.60;;;0.70;92.30;;;;;;5030177;28;20063;-91
2021/03/05 01:32:08;;;;;;;10.35;2.80;;;0.70;92.40;;;;;;5075924;28;20039;-93
2021/03/05 01:34:34;;;;;;;12.38;2.83;;;0.70;92.80;;;;;;5067698;28;20056;-94
2021/03/05 01:37:00;;;;;;;12.13;3.05;;;0.70;92.60;;;;;;5032232;28;20056;-93
2021/03/05 01:39:26;;;;;;;14.05;3.30;;;0.70;92.70;;;;;;5057524;28;20135;-93
2021/03/05 01:41:52;;;;;;;10.30;2.90;;;0.70;92.70;;;;;;5079891;28;20130;-93
2021/03/05 01:44:20;;;;;;;17.55;3.13;;;0.60;92.80;;;;;;5066451;28;20043;-91
2021/03/05 01:46:45;;;;;;;17.08;3.33;;;0.80;92.90;;;;;;5083333;28;20056;-90
2021/03/05 01:49:13;;;;;;;14.43;3.67;;;0.90;93.10;;;;;;5073814;28;20047;-89
2021/03/05 01:51:39;;;;;;;10.68;2.75;;;0.90;93.20;;;;;;5070550;28;20047;-89
2021/03/05 01:54:06;;;;;;;16.65;3.35;;;1.00;93.30;;;;;;5069582;28;20098;-90
2021/03/05 01:56:44;;;;;;;17.38;3.20;;;1.00;93.30;;;;;;5076728;28;20040;-92
2021/03/05 01:59:12;;;;;;;11.27;2.70;;;1.10;93.40;;;;;;5071394;28;20102;-90
2021/03/05 02:01:39;;;;;;;10.43;3.00;;;1.10;93.30;;;;;;5086922;28;20131;-91
2021/03/05 02:04:10;;;;;;;12.43;3.15;;;1.10;93.30;;;;;;5082006;28;20119;-90
2021/03/05 02:06:37;;;;;;;12.45;2.90;;;1.10;93.20;;;;;;5102668;28;20048;-90
2021/03/05 02:09:05;;;;;;;8.10;2.30;;;1.10;93.10;;;;;;5088413;28;20624;-91
2021/03/05 02:11:31;;;;;;;11.70;3.20;;;1.20;93.00;;;;;;5084991;28;20079;-90
2021/03/05 02:13:59;;;;;;;10.82;2.90;;;1.10;92.90;;;;;;5086592;28;20097;-90
2021/03/05 02:16:44;;;;;;;9.55;2.90;;;1.10;92.80;;;;;;5070737;28;20736;-91
2021/03/05 02:19:22;;;;;;;7.55;2.65;;;1.10;92.70;;;;;;5074754;28;20055;-90
2021/03/05 02:22:03;;;;;;;10.20;2.70;;;1.10;92.70;;;;;;5081618;28;20138;-90
2021/03/05 02:25:22;;;;;;;9.77;2.95;;;1.10;92.70;;;;;;5083868;28;20070;-91
2021/03/05 02:27:58;;;;;;;10.30;2.80;;;1.10;92.40;;;;;;4969716;28;20150;-90
2021/03/05 02:31:01;;;;;;;12.45;3.20;;;1.10;92.20;;;;;;4991922;28;20116;-87
2021/03/05 02:34:07;;;;;;;9.98;3.85;;;1.10;92.10;;;;;;4957726;28;20055;-90
2021/03/05 02:36:39;;;;;;;12.88;4.13;;;1.10;91.90;;;;;;4904835;29;20121;-90
2021/03/05 02:39:15;;;;;;;8.73;3.15;;;1.10;91.80;;;;;;4936038;29;20126;-90
2021/03/05 02:41:42;;;;;;;8.00;2.70;;;1.20;91.80;;;;;;4930361;29;20056;-90
2021/03/05 02:44:14;;;;;;;11.05;2.92;;;1.10;91.80;;;;;;4930614;29;20056;-90
2021/03/05 02:46:41;;;;;;;10.63;3.83;;;1.20;91.80;;;;;;4930476;29;20075;-89
2021/03/05 02:49:10;;;;;;;11.85;3.60;;;1.20;91.80;;;;;;4928193;29;20139;-89
2021/03/05 02:51:38;;;;;;;12.40;2.90;;;1.10;91.70;;;;;;4943304;29;20083;-91
2021/03/05 02:54:07;;;;;;;8.48;2.20;;;1.10;91.80;;;;;;4933560;29;20579;-88
2021/03/05 02:56:37;;;;;;;8.63;2.35;;;1.10;91.70;;;;;;4913679;29;20065;-90
2021/03/05 02:59:05;;;;;;;9.90;2.20;;;1.00;91.70;;;;;;4975364;28;20123;-90
2021/03/05 03:01:32;;;;;;;9.45;2.42;;;0.90;91.70;;;;;;5005808;28;20057;-91
2021/03/05 03:04:02;;;;;;;7.65;2.72;;;0.90;91.70;;;;;;5005502;28;20050;-90
2021/03/05 03:06:28;;;;;;;10.73;3.22;;;0.90;91.60;;;;;;5016815;28;20049;-90
2021/03/05 03:08:57;;;;;;;10.18;3.38;;;0.90;91.50;;;;;;5079637;28;20507;-90
2021/03/05 03:11:25;;;;;;;9.52;3.70;;;0.90;91.40;;;;;;5089922;28;20102;-90
2021/03/05 03:13:51;;;;;;;8.60;2.83;;;0.80;91.40;;;;;;5060372;28;20432;-91
2021/03/05 03:16:18;;;;;;;10.18;3.08;;;0.80;91.20;;;;;;5089145;28;20131;-90
2021/03/05 03:18:45;;;;;;;9.65;2.63;;;0.80;91.00;;;;;;5085277;28;20040;-89
2021/03/05 03:21:12;;;;;;;11.27;2.95;;;0.80;91.00;;;;;;5083586;28;20059;-90
2021/03/05 03:23:40;;;;;;;12.38;3.40;;;0.70;91.00;;;;;;5082068;28;20052;-90
2021/03/05 03:26:07;;;;;;;12.13;4.38;;;0.70;90.90;;;;;;5079442;28;21875;-91
2021/03/05 03:28:35;;;;;;;11.18;3.97;;;0.60;90.80;;;;;;5061807;28;20056;-91
2021/03/05 03:31:04;;;;;;;14.45;4.28;;;0.60;90.70;;;;;;5075710;28;20058;-90
2021/03/05 03:33:30;;;;;;;10.90;3.83;;;0.60;90.70;;;;;;5082811;28;20097;-91
2021/03/05 03:35:56;;;;;;;10.40;3.25;;;0.50;90.70;;;;;;5087439;28;20135;-91
2021/03/05 03:38:23;;;;;;;9.43;2.78;;;0.50;90.70;;;;;;5076314;28;20090;-91
2021/03/05 03:40:49;;;;;;;10.52;2.50;;;0.40;90.60;;;;;;5064819;28;20441;-88
2021/03/05 03:43:15;;;;;;;9.60;2.50;;;0.40;90.60;;;;;;5068766;28;20048;-89
2021/03/05 03:45:41;;;;;;;9.35;3.53;;;0.40;90.50;;;;;;5069041;28;20431;-90
2021/03/05 03:48:09;;;;;;;11.93;4.82;;;0.40;90.40;;;;;;5060305;28;20060;-91
2021/03/05 03:50:44;;;;;;;10.52;4.93;;;0.40;90.30;;;;;;5087329;28;20044;-90
2021/03/05 03:53:15;;;;;;;15.43;6.03;;;0.40;90.30;;;;;;5084685;28;20040;-90
2021/03/05 03:55:41;;;;;;;10.35;3.58;;;0.30;90.20;;;;;;5083425;28;20134;-90
2021/03/05 03:58:08;;;;;;;8.57;2.50;;;0.20;90.20;;;;;;5083805;28;20053;-91
2021/03/05 04:00:35;;;;;;;10.05;2.35;;;0.10;90.20;;;;;;5081382;28;20142;-91
2021/03/05 04:03:04;;;;;;;5.53;1.88;;;0.10;90.30;;;;;;5074878;28;20124;-91
2021/03/05 04:05:33;;;;;;;12.48;2.05;;;0.00;90.30;;;;;;5068919;28;20151;-91
2021/03/05 04:08:00;;;;;;;9.05;2.15;;;0.00;90.30;;;;;;5084488;28;20047;-92
2021/03/05 04:10:27;;;;;;;9.40;1.98;;;-0.10;90.40;;;;;;5082528;28;20072;-91
2021/03/05 04:12:56;;;;;;;10.00;1.92;;;-0.20;90.50;;;;;;5084688;28;20052;-89
2021/03/05 04:15:24;;;;;;;9.43;1.70;;;-0.20;90.60;;;;;;5086947;28;20044;-91
2021/03/05 04:17:50;;;;;;;14.82;1.67;;;-0.30;90.50;;;;;;5077278;28;20137;-88
2021/03/05 04:20:17;;;;;;;12.73;1.60;;;-0.30;90.60;;;;;;5081754;28;20039;-92
2021/03/05 04:22:45;;;;;;;7.47;1.83;;;-0.30;90.70;;;;;;5061558;28;20048;-91
2021/03/05 04:25:13;;;;;;;11.63;2.03;;;-0.40;90.70;;;;;;5085883;28;20638;-90
2021/03/05 04:27:40;;;;;;;5.55;1.55;;;-0.50;90.70;;;;;;5088122;27;20481;-90
2021/03/05 04:30:07;;;;;;;10.80;1.90;;;-0.50;90.80;;;;;;5072143;28;20048;-91
2021/03/05 04:32:33;;;;;;;8.55;1.95;;;-0.60;90.80;;;;;;5079641;28;20095;-90
2021/03/05 04:34:59;;;;;;;12.73;2.05;;;-0.60;90.80;;;;;;5082432;28;20036;-91
2021/03/05 04:37:25;;;;;;;8.35;2.42;;;-0.70;90.80;;;;;;5067149;28;20127;-90
2021/03/05 04:39:51;;;;;;;8.02;2.00;;;-0.70;90.90;;;;;;5063478;28;20124;-87
2021/03/05 04:42:17;;;;;;;9.32;1.80;;;-0.80;90.90;;;;;;5066394;28;20047;-88
2021/03/05 04:44:42;;;;;;;8.07;2.15;;;-0.80;91.00;;;;;;5086819;28;20051;-89
2021/03/05 04:47:08;;;;;;;6.07;1.67;;;-0.80;91.10;;;;;;5081472;28;20082;-89
2021/03/05 04:49:34;;;;;;;6.57;1.77;;;-0.90;91.00;;;;;;5081893;28;20081;-89
2021/03/05 04:52:00;;;;;;;8.63;1.80;;;-1.00;91.10;;;;;;5069206;28;20557;-88
2021/03/05 04:54:26;;;;;;;9.32;1.75;;;-1.00;91.10;;;;;;5080777;28;20075;-89
2021/03/05 04:56:52;;;;;;;7.47;1.70;;;-1.00;91.20;;;;;;5082374;28;20110;-86
2021/03/05 04:59:18;;;;;;;3.97;1.50;;;-1.00;91.30;;;;;;5066958;28;20051;-89
2021/03/05 05:01:43;;;;;;;9.40;2.05;;;-1.10;91.70;;;;;;5081334;28;20086;-89
2021/03/05 05:04:09;;;;;;;8.25;1.60;;;-1.20;91.40;;;;;;5085008;28;20118;-89
2021/03/05 05:06:35;;;;;;;10.18;2.00;;;-1.20;91.50;;;;;;5089839;28;20063;-88
2021/03/05 05:09:01;;;;;;;7.88;2.53;;;-1.30;91.60;;;;;;5077009;28;20068;-89
2021/03/05 05:11:27;;;;;;;10.13;2.50;;;-1.30;91.70;;;;;;5082983;28;20078;-89
2021/03/05 05:13:53;;;;;;;8.02;2.70;;;-1.30;91.70;;;;;;5086166;28;20575;-86
2021/03/05 05:16:20;;;;;;;9.48;3.90;;;-1.40;91.80;;;;;;5080593;28;20047;-89
2021/03/05 05:18:46;;;;;;;9.45;2.75;;;-1.40;91.60;;;;;;5082814;28;20097;-88
2021/03/05 05:21:12;;;;;;;9.50;2.75;;;-1.50;91.70;;;;;;5084863;28;21021;-89
2021/03/05 05:23:38;;;;;;;7.85;2.45;;;-1.40;91.80;;;;;;5078798;28;20126;-89
2021/03/05 05:26:04;;;;;;;6.28;3.55;;;-1.40;91.90;;;;;;5088282;28;20064;-89
2021/03/05 05:28:29;;;;;;;9.98;2.60;;;-1.40;91.90;;;;;;5072085;28;20385;-89
2021/03/05 05:30:55;;;;;;;9.43;2.60;;;-1.40;91.90;;;;;;5080340;28;20064;-86
2021/03/05 05:33:21;;;;;;;6.32;2.20;;;-1.40;91.90;;;;;;5081097;28;20045;-88
2021/03/05 05:35:47;;;;;;;8.50;2.03;;;-1.50;91.90;;;;;;5078842;28;20052;-88
2021/03/05 05:38:13;;;;;;;7.57;1.90;;;-1.50;91.90;;;;;;5073236;28;20424;-87
2021/03/05 05:40:42;;;;;;;9.20;2.08;;;-1.50;91.90;;;;;;5069012;28;20066;-89
2021/03/05 05:43:08;;;;;;;6.05;2.28;;;-1.50;92.00;;;;;;5071950;28;20044;-87
2021/03/05 05:45:34;;;;;;;6.10;1.80;;;-1.50;91.80;;;;;;5085543;28;20056;-89
2021/03/05 05:48:02;;;;;;;9.45;2.85;;;-1.60;91.80;;;;;;5067336;28;20101;-90
2021/03/05 05:50:31;;;;;;;8.80;2.70;;;-1.60;91.90;;;;;;5063913;28;20055;-89
2021/03/05 05:52:58;;;;;;;12.30;2.70;;;-1.60;92.20;;;;;;5053411;28;20068;-85
2021/03/05 05:55:25;;;;;;;5.10;1.75;;;-1.50;91.90;;;;;;5073732;28;20052;-89
2021/03/05 05:57:53;;;;;;;9.98;2.17;;;-1.60;91.90;;;;;;5092360;28;20056;-89
2021/03/05 06:00:20;;;;;;;9.98;2.53;;;-1.50;91.90;;;;;;5087157;28;20127;-86
2021/03/05 06:02:46;;;;;;;5.43;2.50;;;-1.50;91.90;;;;;;5096407;28;20063;-87
2021/03/05 06:05:16;;;;;;;12.98;3.08;;;-1.50;91.90;;;;;;5099455;28;20048;-85
2021/03/05 06:07:43;;;;;;;10.10;2.20;;;-1.50;91.90;;;;;;5105494;28;20044;-88
2021/03/05 06:10:13;;;;;;;8.40;2.17;;;-1.50;92.00;;;;;;5097075;28;20035;-87
2021/03/05 06:12:39;;;;;;;9.07;2.20;;;-1.50;92.00;;;;;;5103765;28;20569;-86
2021/03/05 06:15:08;;;;;;;9.75;2.15;;;-1.50;92.00;;;;;;5106448;28;20040;-87
2021/03/05 06:17:45;;;;;;;12.18;2.45;;;-1.50;91.90;;;;;;5101384;28;20037;-87
2021/03/05 06:20:15;;;;;;;11.95;2.50;;;-1.50;91.90;;;;;;5099488;28;20048;-86
2021/03/05 06:22:41;;;;;;;7.47;2.00;;;-1.60;91.90;;;;;;5101412;28;20051;-86
2021/03/05 06:25:09;;;;;;;5.97;2.10;;;-1.60;92.00;;;;;;5100830;28;20044;-86
2021/03/05 06:27:37;;;;;;;6.63;1.75;;;-1.60;92.00;;;;;;5099456;28;20048;-89
2021/03/05 06:30:03;;;;;;;9.27;2.33;;;-1.60;91.90;;;;;;5101692;28;20060;-87
2021/03/05 06:32:47;;;;;;;9.73;2.28;;;-1.60;91.90;;;;;;5070445;28;20531;-88
2021/03/05 06:35:24;;;;;;;10.63;2.20;;;-1.50;92.00;;;;;;5060275;28;20050;-88
2021/03/05 06:37:50;;;;;;;8.25;2.45;;;-1.50;92.10;;;;;;5076503;28;20044;-89
2021/03/05 06:40:16;;;;;;;9.30;2.15;;;-1.50;92.10;;;;;;5071217;28;20052;-93
2021/03/05 06:42:54;;;;;;;9.68;2.63;;;-1.50;92.10;;;;;;5088516;28;20051;-93
2021/03/05 06:45:25;;;;;;;8.45;3.40;;;-1.60;92.10;;;;;;5088059;28;20056;-92
2021/03/05 06:48:08;;;;;;;4.65;1.83;;;-1.50;92.20;;;;;;5091491;28;20040;-93
2021/03/05 07:06:25;;;;;;;6.13;2.10;;;-1.30;91.80;;;;;;5038567;23;20040;-92
2021/03/05 07:12:08;;;;;;;7.68;2.75;;;-1.10;91.40;;;;;;4866727;23;20061;-92
2021/03/05 07:14:52;;;;;;;8.82;2.88;;;-1.10;91.40;;;;;;5318523;23;20040;-93
2021/03/05 07:32:34;;;;;;;;;;;;;;;;;;;;;
2021/03/05 07:35:32;;;;;;;7.93;2.85;;;-0.40;91.40;;;;;;4897625;23;20045;-94
2021/03/05 07:38:24;;;;;;;11.13;3.40;;;-0.30;91.30;;;;;;4822569;29;20030;-92
2021/03/05 07:41:31;;;;;;;9.52;3.42;;;-0.10;91.30;;;;;;4762477;29;20042;-93
2021/03/05 07:44:25;;;;;;;10.75;3.50;;;0.20;91.10;;;;;;4879001;23;20044;-89
2021/03/05 07:47:12;;;;;;;8.10;3.05;;;0.50;91.00;;;;;;4913282;23;20049;-92
2021/03/05 07:49:45;;;;;;;7.40;2.63;;;0.60;90.80;;;;;;4955221;23;20061;-92
2021/03/05 07:52:14;;;;;;;12.48;2.40;;;0.80;90.50;;;;;;4831963;29;20174;-93
2021/03/05 07:57:21;;;;;;;8.27;2.20;;;1.20;90.00;;;;;;4903074;23;20043;-90
2021/03/05 08:02:38;;;;;;;10.10;2.53;;;1.60;88.10;;;;;;4970449;23;20061;-89
2021/03/05 08:24:15;;;;;;;5.30;1.80;;;2.90;81.10;;;;;;1566674;23;20381;-92
2021/03/05 08:34:49;;;;;;;2.88;1.70;;;3.40;77.20;;;;;;4863163;29;20113;-91
2021/03/05 08:37:29;;;;;;;3.85;2.20;;;3.50;77.10;;;;;;4865030;29;20061;-93
2021/03/05 08:40:17;;;;;;;4.45;1.60;;;3.60;75.70;;;;;;4828895;29;20117;-93
2021/03/05 08:42:49;;;;;;;6.85;2.08;;;3.80;75.20;;;;;;4873619;29;20064;-94
2021/03/05 08:45:54;;;;;;;5.50;1.65;;;3.90;75.10;;;;;;4839159;29;20053;-93
2021/03/05 08:48:42;;;;;;;5.97;1.65;;;4.00;74.80;;;;;;4808011;29;20391;-91
2021/03/05 08:51:17;;;;;;;6.95;2.10;;;4.10;72.80;;;;;;4863422;29;20054;-91
2021/03/05 09:02:19;;;;;;;6.63;1.67;;;4.50;71.40;;;;;;4863430;29;20555;-89
2021/03/05 09:04:48;;;;;;;4.28;1.20;;;4.60;71.10;;;;;;4896670;29;20445;-88
2021/03/05 09:07:14;;;;;;;4.35;1.40;;;4.70;70.50;;;;;;4882127;29;20052;-88
2021/03/05 09:09:40;;;;;;;3.55;1.20;;;4.80;68.90;;;;;;4888905;29;20060;-86
2021/03/05 09:12:15;;;;;;;4.10;1.60;;;4.90;69.70;;;;;;4894907;29;20525;-87
2021/03/05 09:14:42;;;;;;;4.25;1.40;;;5.10;67.00;;;;;;4911810;29;20047;-84
2021/03/05 09:17:09;;;;;;;4.95;1.08;;;5.20;65.30;;;;;;4909534;29;20060;-87
2021/03/05 09:19:37;;;;;;;4.32;1.13;;;5.20;63.90;;;;;;4895470;29;20111;-85
2021/03/05 09:22:05;;;;;;;4.10;1.50;;;5.20;66.00;;;;;;4894403;29;20059;-84
2021/03/05 09:24:51;;;;;;;3.10;0.98;;;5.40;65.20;;;;;;4882837;29;20528;-87
2021/03/05 09:27:31;;;;;;;3.40;1.00;;;5.50;62.60;;;;;;4890810;29;20576;-85
2021/03/05 09:29:59;;;;;;;3.13;1.00;;;5.60;62.30;;;;;;4913969;29;20055;-85
2021/03/05 09:32:25;;;;;;;4.65;1.40;;;5.60;60.60;;;;;;4919736;29;20048;-86
2021/03/05 09:34:51;;;;;;;2.78;1.00;;;5.70;59.60;;;;;;4910989;29;20049;-86
2021/03/05 09:37:21;;;;;;;3.83;1.38;;;5.70;60.90;;;;;;4896509;29;20058;-91
2021/03/05 09:39:49;;;;;;;8.27;2.45;;;5.80;62.30;;;;;;4869613;29;20061;-85
2021/03/05 09:42:15;;;;;;;2.22;0.90;;;6.00;63.40;;;;;;4866031;29;20564;-86
2021/03/05 09:44:49;;;;;;;1.92;1.05;;;6.20;62.00;;;;;;4849887;29;20085;-86
2021/03/05 09:47:15;;;;;;;4.22;1.10;;;6.40;60.40;;;;;;4853136;29;20051;-89
2021/03/05 09:49:41;;;;;;;2.22;0.90;;;6.50;60.40;;;;;;4883619;29;20053;-86
2021/03/05 09:52:25;;;;;;;6.50;1.48;;;6.40;60.80;;;;;;4879607;29;20150;-86
2021/03/05 09:54:54;;;;;;;20.40;11.02;;;6.30;61.60;;;;;;4836252;29;20057;-86
2021/03/05 09:57:24;;;;;;;11.30;4.55;;;6.30;62.40;;;;;;4883941;29;20059;-87
2021/03/05 09:59:55;;;;;;;11.13;4.88;;;6.30;61.60;;;;;;4906671;29;20493;-93
2021/03/05 10:02:22;;;;;;;4.95;1.70;;;6.20;62.60;;;;;;4885423;29;20084;-90
2021/03/05 10:04:50;;;;;;;9.45;5.32;;;5.90;63.40;;;;;;4880423;29;20083;-86
2021/03/05 10:07:17;;;;;;;4.05;1.30;;;5.90;64.70;;;;;;4893679;29;20418;-84
2021/03/05 10:09:43;;;;;;;4.47;1.17;;;5.80;62.90;;;;;;4881731;29;20582;-86
2021/03/05 10:12:09;;;;;;;5.10;1.00;;;5.80;64.40;;;;;;4872498;29;20056;-86
2021/03/05 10:14:40;;;;;;;5.53;1.30;;;6.00;64.00;;;;;;4876950;29;20045;-86
2021/03/05 10:17:13;;;;;;;7.55;1.30;;;6.30;62.70;;;;;;4883823;29;20108;-85
2021/03/05 10:19:41;;;;;;;3.47;1.10;;;6.40;62.20;;;;;;4866165;29;20080;-87
2021/03/05 10:22:08;;;;;;;3.90;1.20;;;6.30;63.50;;;;;;4882892;29;20099;-86
2021/03/05 10:24:35;;;;;;;1.80;0.80;;;6.30;64.30;;;;;;4898013;29;20694;-87
2021/03/05 10:27:19;;;;;;;4.55;1.00;;;6.30;61.40;;;;;;4886546;29;20139;-87
2021/03/05 10:29:56;;;;;;;2.92;0.98;;;6.00;61.60;;;;;;4876307;29;20044;-88
2021/03/05 10:32:32;;;;;;;2.10;0.93;;;5.90;62.80;;;;;;4851343;29;20056;-86
2021/03/05 10:35:19;;;;;;;5.55;1.30;;;5.70;62.90;;;;;;4878449;29;20056;-91
2021/03/05 10:37:44;;;;;;;4.65;1.00;;;5.70;64.90;;;;;;4872473;29;20053;-88
2021/03/05 10:40:15;;;;;;;5.55;1.10;;;5.50;63.70;;;;;;4886060;29;20057;-91
2021/03/05 10:42:43;;;;;;;4.20;1.30;;;5.40;64.30;;;;;;4866775;29;20056;-89
2021/03/05 10:45:12;;;;;;;3.60;1.27;;;5.50;63.30;;;;;;4837659;29;20158;-90
2021/03/05 10:48:00;;;;;;;7.68;1.55;;;5.90;62.80;;;;;;4829714;29;20404;-86
2021/03/05 10:50:38;;;;;;;;;;;;;;;;;;;;;
2021/03/05 10:53:04;;;;;;;5.50;1.40;;;6.70;60.80;;;;;;4848235;29;20438;-87
2021/03/05 10:55:35;;;;;;;3.75;1.38;;;7.00;59.40;;;;;;4844706;29;20148;-86
2021/03/05 10:58:02;;;;;;;2.72;0.93;;;7.30;58.60;;;;;;4863426;29;20572;-87
2021/03/05 11:00:36;;;;;;;;;;;7.40;56.10;;;;;;4866623;29;20055;-87
2021/03/05 11:03:03;;;;;;;7.53;3.95;;;7.30;56.80;;;;;;4882312;29;20299;-88
2021/03/05 11:05:28;;;;;;;7.75;3.40;;;7.30;57.60;;;;;;4915618;29;20127;-87
2021/03/05 11:07:55;;;;;;;9.68;3.35;;;7.40;56.10;;;;;;4906232;29;20503;-87
2021/03/05 11:10:21;;;;;;;5.88;2.00;;;7.10;56.80;;;;;;4889484;29;20062;-87
2021/03/05 11:12:48;;;;;;;3.38;1.23;;;7.10;55.30;;;;;;4914871;29;20048;-87
2021/03/05 11:15:18;;;;;;;5.00;1.40;;;7.00;54.00;;;;;;4870853;29;20048;-89
2021/03/05 11:17:45;;;;;;;3.63;1.52;;;6.70;56.40;;;;;;4904578;29;20060;-89
2021/03/05 11:20:11;;;;;;;5.70;1.48;;;6.70;56.90;;;;;;4874510;29;20052;-86
2021/03/05 11:22:50;;;;;;;4.45;1.25;;;7.20;58.20;;;;;;4862023;29;20059;-88
2021/03/05 11:25:21;;;;;;;2.65;1.17;;;7.50;57.20;;;;;;4809073;29;20094;-90
2021/03/05 11:27:53;;;;;;;3.90;1.30;;;7.80;56.80;;;;;;4786158;29;20046;-90
2021/03/05 11:30:31;;;;;;;4.00;1.20;;;7.80;55.90;;;;;;4758265;29;20528;-88
2021/03/05 11:32:57;;;;;;;4.95;1.33;;;7.60;57.40;;;;;;4777016;29;20054;-88
2021/03/05 11:35:25;;;;;;;5.03;1.30;;;7.30;57.00;;;;;;4795688;29;20055;-87
2021/03/05 11:37:55;;;;;;;5.00;1.63;;;7.00;58.10;;;;;;4780077;29;20541;-89
2021/03/05 11:40:24;;;;;;;5.35;1.23;;;6.90;59.70;;;;;;4791030;29;20073;-89
2021/03/05 11:42:55;;;;;;;7.85;1.65;;;7.20;58.10;;;;;;4756768;29;20055;-90
2021/03/05 11:45:22;;;;;;;3.78;1.20;;;7.40;60.30;;;;;;4808537;29;20530;-86
2021/03/05 11:47:51;;;;;;;4.68;1.60;;;7.40;58.00;;;;;;4835702;29;20078;-86
2021/03/05 11:50:17;;;;;;;3.30;1.10;;;7.30;58.00;;;;;;4823543;29;20055;-88
2021/03/05 11:52:44;;;;;;;5.13;1.30;;;7.10;58.70;;;;;;4869413;29;20131;-87
2021/03/05 11:55:10;;;;;;;5.25;1.42;;;7.00;59.40;;;;;;4897271;29;20048;-86
2021/03/05 11:57:36;;;;;;;4.72;1.25;;;7.10;58.70;;;;;;4911490;29;20924;-86
2021/03/05 12:00:07;;;;;;;6.63;1.65;;;7.30;59.60;;;;;;4894819;29;20065;-86
2021/03/05 12:02:38;;;;;;;5.40;1.20;;;7.60;59.00;;;;;;4880296;29;20048;-88
2021/03/05 12:05:31;;;;;;;4.15;1.30;;;8.10;56.90;;;;;;4802966;29;20152;-92
2021/03/05 12:11:59;;;;;;;;;;;;;;;;;;;;;
2021/03/05 12:14:56;;;;;;;7.50;1.70;;;8.40;55.20;;;;;;4893806;28;20051;-87
2021/03/05 12:18:09;;;;;;;5.57;1.30;;;7.80;57.00;;;;;;4869030;29;20390;-88
2021/03/05 12:20:38;;;;;;;;;;;7.30;58.80;;;;;;4834907;29;20076;-87
2021/03/05 12:23:07;;;;;;;5.88;1.30;;;7.10;59.90;;;;;;4853394;29;19923;-88
2021/03/05 12:26:32;;;;;;;4.75;1.20;;;7.30;60.70;;;;;;4488890;27;15062159;-87
2021/03/05 12:29:11;;;;;;;3.88;1.10;;;7.80;59.00;;;;;;4981273;28;20116;-88
2021/03/05 12:32:03;;;;;;;6.38;1.65;;;8.10;56.00;;;;;;4972830;28;20181;-88
2021/03/05 12:34:49;;;;;;;5.13;1.52;;;8.10;58.00;;;;;;4941870;28;20618;-88
2021/03/05 12:37:35;;;;;;;8.43;2.85;;;8.00;57.80;;;;;;4982317;28;20172;-88
2021/03/05 12:40:21;;;;;;;8.43;2.50;;;7.90;57.40;;;;;;5002008;28;20084;-90
2021/03/05 12:42:47;;;;;;;6.45;1.83;;;8.20;56.60;;;;;;5060484;28;20075;-88
2021/03/05 12:45:13;;;;;;;4.65;1.27;;;8.30;55.20;;;;;;5069481;28;20055;-87
2021/03/05 12:47:40;;;;;;;6.32;2.40;;;8.10;54.70;;;;;;5075309;28;20503;-88
2021/03/05 12:50:07;;;;;;;4.05;1.38;;;7.70;56.30;;;;;;5078579;28;20051;-86
2021/03/05 12:52:34;;;;;;;4.07;1.35;;;7.40;56.90;;;;;;5093850;28;20416;-86
2021/03/05 12:55:00;;;;;;;3.78;1.42;;;7.20;57.30;;;;;;5074711;28;20110;-86
2021/03/05 12:57:25;;;;;;;5.55;1.20;;;7.10;58.20;;;;;;5075390;28;20492;-86
2021/03/05 12:59:51;;;;;;;3.70;1.30;;;7.30;57.20;;;;;;5077351;28;20048;-85
2021/03/05 13:02:17;;;;;;;4.25;1.20;;;7.70;57.10;;;;;;5071284;28;20045;-89
2021/03/05 13:04:43;;;;;;;4.13;1.10;;;8.10;56.50;;;;;;5067984;28;20374;-87
2021/03/05 13:07:11;;;;;;;4.15;0.80;;;8.50;54.80;;;;;;5066666;28;20047;-86
2021/03/05 13:09:37;;;;;;;4.43;1.20;;;8.30;54.10;;;;;;5075495;28;20101;-84
2021/03/05 13:12:03;;;;;;;5.00;1.25;;;8.00;55.00;;;;;;5077310;28;20056;-85
2021/03/05 13:14:29;;;;;;;6.10;1.33;;;7.70;57.10;;;;;;5072044;28;20078;-85
2021/03/05 13:16:54;;;;;;;4.03;1.13;;;7.70;58.90;;;;;;5077193;28;20056;-86
2021/03/05 13:19:20;;;;;;;5.43;1.27;;;8.00;56.20;;;;;;5075545;28;20403;-85
2021/03/05 13:21:46;;;;;;;8.60;2.63;;;8.00;54.10;;;;;;5077842;28;20139;-85
2021/03/05 13:24:12;;;;;;;6.82;1.30;;;7.80;54.60;;;;;;5077277;28;20052;-86
2021/03/05 13:26:38;;;;;;;4.40;1.20;;;7.50;55.30;;;;;;5079002;28;20070;-87
2021/03/05 13:29:03;;;;;;;6.43;1.58;;;7.40;56.70;;;;;;5077387;28;20090;-84
2021/03/05 13:31:29;;;;;;;18.33;8.27;;;7.30;58.30;;;;;;5058518;28;20044;-86
2021/03/05 13:33:56;;;;;;;14.68;5.35;;;7.50;58.60;;;;;;5070570;28;21049;-91
2021/03/05 13:36:22;;;;;;;41.40;15.75;;;7.60;57.60;;;;;;5063390;28;20045;-85
2021/03/05 13:38:48;;;;;;;15.05;5.28;;;7.50;57.80;;;;;;5061369;28;20063;-88
2021/03/05 13:41:14;;;;;;;20.13;7.53;;;7.40;58.90;;;;;;5059721;28;20048;-89
2021/03/05 13:43:40;;;;;;;16.45;6.82;;;7.30;59.60;;;;;;5064873;28;20499;-87
2021/03/05 13:46:06;;;;;;;6.18;2.03;;;7.10;60.30;;;;;;5078801;28;20052;-86
2021/03/05 13:48:32;;;;;;;11.32;3.85;;;7.00;59.90;;;;;;5064207;28;20048;-87
2021/03/05 13:50:58;;;;;;;6.32;2.28;;;7.00;60.40;;;;;;5060216;28;20052;-85
2021/03/05 13:53:25;;;;;;;11.57;3.58;;;6.90;60.40;;;;;;5058757;28;20044;-90
2021/03/05 13:55:51;;;;;;;10.02;2.75;;;6.80;61.10;;;;;;5041850;28;20499;-86
2021/03/05 13:58:17;;;;;;;9.55;2.53;;;6.70;61.70;;;;;;5060153;28;20098;-89
2021/03/05 14:00:43;;;;;;;7.07;1.85;;;6.70;61.10;;;;;;5079641;28;20037;-86
2021/03/05 14:03:09;;;;;;;6.90;1.90;;;6.80;61.80;;;;;;5051665;28;20076;-86
2021/03/05 14:26:19;;;;;;;;;;;;;;;;;;;;;
2021/03/05 14:29:58;;;;;;;;;;;;;;;;;;;;;
2021/03/05 14:35:52;;;;;;;5.53;1.80;;;7.40;61.20;;;;;;6090518;23;20027;-95
2021/03/05 14:42:08;;;;;;;;;;;;;;;;;;;;;
2021/03/05 14:45:04;;;;;;;5.00;1.50;;;8.00;56.10;;;;;;5922767;23;20075;-96
2021/03/05 14:58:15;;;;;;;5.22;1.00;;;8.10;56.30;;;;;;6231231;22;20108;-95
2021/03/05 15:21:56;;;;;;;1.90;0.90;;;8.50;52.30;;;;;;5887251;22;6578531;-90
2021/03/05 15:24:44;;;;;;;4.28;0.93;;;8.70;52.40;;;;;;6131608;23;20621;-93
2021/03/05 15:27:30;;;;;;;3.67;1.40;;;8.70;52.20;;;;;;6099550;23;20088;-93
2021/03/05 15:30:10;;;;;;;;;;;8.70;51.30;;;;;;6081899;23;20043;-94
2021/03/05 15:32:47;;;;;;;5.25;1.50;;;8.60;51.40;;;;;;6148372;23;19931;-92
2021/03/05 15:35:29;;;;;;;3.47;1.05;;;8.60;52.60;;;;;;6046714;23;20035;-95